sensor_id;sensor_type;location;lat;lon;timestamp;temperature;humidity
39675;DHT22;27790;50.840;4.386;2023-05-07T00:00:38;18.60;95.80
39675;DHT22;27790;50.840;4.386;2023-05-07T00:03:03;18.50;95.90
39675;DHT22;27790;50.840;4.386;2023-05-07T00:05:29;18.50;96.20
39675;DHT22;27790;50.840;4.386;2023-05-07T00:07:55;18.50;96.10
39675;DHT22;27790;50.840;4.386;2023-05-07T00:10:20;18.50;96.20
39675;DHT22;27790;50.840;4.386;2023-05-07T00:12:46;18.50;96.20
39675;DHT22;27790;50.840;4.386;2023-05-07T00:15:12;18.50;96.20
39675;DHT22;27790;50.840;4.386;2023-05-07T00:17:37;18.50;96.10
39675;DHT22;27790;50.840;4.386;2023-05-07T00:20:04;18.50;96.00
39675;DHT22;27790;50.840;4.386;2023-05-07T00:22:30;18.50;96.00
39675;DHT22;27790;50.840;4.386;2023-05-07T00:24:58;18.50;96.10
39675;DHT22;27790;50.840;4.386;2023-05-07T00:27:24;18.40;96.10
39675;DHT22;27790;50.840;4.386;2023-05-07T00:29:50;18.50;96.10
39675;DHT22;27790;50.840;4.386;2023-05-07T00:32:16;18.50;96.00
39675;DHT22;27790;50.840;4.386;2023-05-07T00:34:42;18.40;96.10
39675;DHT22;27790;50.840;4.386;2023-05-07T00:37:08;18.50;96.10
39675;DHT22;27790;50.840;4.386;2023-05-07T00:39:34;18.50;96.10
39675;DHT22;27790;50.840;4.386;2023-05-07T00:42:00;18.50;96.10
39675;DHT22;27790;50.840;4.386;2023-05-07T00:44:26;18.40;96.10
39675;DHT22;27790;50.840;4.386;2023-05-07T00:46:52;18.40;96.30
39675;DHT22;27790;50.840;4.386;2023-05-07T00:49:18;18.40;96.60
39675;DHT22;27790;50.840;4.386;2023-05-07T00:51:44;18.30;96.50
39675;DHT22;27790;50.840;4.386;2023-05-07T00:54:11;18.30;96.40
39675;DHT22;27790;50.840;4.386;2023-05-07T00:56:36;18.30;96.50
39675;DHT22;27790;50.840;4.386;2023-05-07T00:59:03;18.20;96.40
39675;DHT22;27790;50.840;4.386;2023-05-07T01:01:29;18.20;96.50
39675;DHT22;27790;50.840;4.386;2023-05-07T01:03:55;18.20;96.60
39675;DHT22;27790;50.840;4.386;2023-05-07T01:06:23;18.20;96.40
39675;DHT22;27790;50.840;4.386;2023-05-07T01:08:51;18.20;96.50
39675;DHT22;27790;50.840;4.386;2023-05-07T01:11:18;18.20;96.50
39675;DHT22;27790;50.840;4.386;2023-05-07T01:13:46;18.20;96.70
39675;DHT22;27790;50.840;4.386;2023-05-07T01:16:12;18.20;96.70
39675;DHT22;27790;50.840;4.386;2023-05-07T01:18:38;18.20;96.70
39675;DHT22;27790;50.840;4.386;2023-05-07T01:21:04;18.20;96.70
39675;DHT22;27790;50.840;4.386;2023-05-07T01:23:30;18.20;96.80
39675;DHT22;27790;50.840;4.386;2023-05-07T01:25:56;18.20;96.70
39675;DHT22;27790;50.840;4.386;2023-05-07T01:28:22;18.20;96.80
39675;DHT22;27790;50.840;4.386;2023-05-07T01:30:51;18.20;96.80
39675;DHT22;27790;50.840;4.386;2023-05-07T01:33:20;18.20;96.80
39675;DHT22;27790;50.840;4.386;2023-05-07T01:35:50;18.10;96.70
39675;DHT22;27790;50.840;4.386;2023-05-07T01:38:18;18.10;96.70
39675;DHT22;27790;50.840;4.386;2023-05-07T01:40:44;18.10;96.70
39675;DHT22;27790;50.840;4.386;2023-05-07T01:43:10;18.00;96.70
39675;DHT22;27790;50.840;4.386;2023-05-07T01:45:36;18.00;96.80
39675;DHT22;27790;50.840;4.386;2023-05-07T01:48:02;18.00;96.60
39675;DHT22;27790;50.840;4.386;2023-05-07T01:50:29;18.10;96.60
39675;DHT22;27790;50.840;4.386;2023-05-07T01:52:56;18.00;96.60
39675;DHT22;27790;50.840;4.386;2023-05-07T01:55:21;18.00;96.60
39675;DHT22;27790;50.840;4.386;2023-05-07T01:57:47;18.00;96.70
39675;DHT22;27790;50.840;4.386;2023-05-07T02:00:13;18.00;96.70
39675;DHT22;27790;50.840;4.386;2023-05-07T02:02:39;17.90;96.70
39675;DHT22;27790;50.840;4.386;2023-05-07T02:05:05;17.90;96.90
39675;DHT22;27790;50.840;4.386;2023-05-07T02:07:30;17.90;96.90
39675;DHT22;27790;50.840;4.386;2023-05-07T02:09:56;17.90;97.00
39675;DHT22;27790;50.840;4.386;2023-05-07T02:12:22;17.90;97.00
39675;DHT22;27790;50.840;4.386;2023-05-07T02:14:48;17.90;97.10
39675;DHT22;27790;50.840;4.386;2023-05-07T02:17:13;17.90;97.10
39675;DHT22;27790;50.840;4.386;2023-05-07T02:19:39;18.00;97.00
39675;DHT22;27790;50.840;4.386;2023-05-07T02:22:05;18.00;96.90
39675;DHT22;27790;50.840;4.386;2023-05-07T02:24:30;18.00;96.90
39675;DHT22;27790;50.840;4.386;2023-05-07T02:26:56;17.90;97.10
39675;DHT22;27790;50.840;4.386;2023-05-07T02:29:22;17.90;96.90
39675;DHT22;27790;50.840;4.386;2023-05-07T02:31:47;17.90;96.90
39675;DHT22;27790;50.840;4.386;2023-05-07T02:34:16;17.80;96.90
39675;DHT22;27790;50.840;4.386;2023-05-07T02:36:42;17.70;97.10
39675;DHT22;27790;50.840;4.386;2023-05-07T02:39:08;17.70;97.00
39675;DHT22;27790;50.840;4.386;2023-05-07T02:41:34;17.70;97.10
39675;DHT22;27790;50.840;4.386;2023-05-07T02:44:00;17.60;97.10
39675;DHT22;27790;50.840;4.386;2023-05-07T02:46:25;17.60;97.30
39675;DHT22;27790;50.840;4.386;2023-05-07T02:48:51;17.50;97.30
39675;DHT22;27790;50.840;4.386;2023-05-07T02:51:20;17.50;97.40
39675;DHT22;27790;50.840;4.386;2023-05-07T02:53:46;17.40;97.40
39675;DHT22;27790;50.840;4.386;2023-05-07T02:56:12;17.40;97.40
39675;DHT22;27790;50.840;4.386;2023-05-07T02:58:38;17.40;97.40
39675;DHT22;27790;50.840;4.386;2023-05-07T03:01:08;17.50;97.40
39675;DHT22;27790;50.840;4.386;2023-05-07T03:03:34;17.50;97.20
39675;DHT22;27790;50.840;4.386;2023-05-07T03:06:00;17.60;97.10
39675;DHT22;27790;50.840;4.386;2023-05-07T03:08:26;17.70;97.10
39675;DHT22;27790;50.840;4.386;2023-05-07T03:10:51;17.70;97.10
39675;DHT22;27790;50.840;4.386;2023-05-07T03:13:17;17.70;96.80
39675;DHT22;27790;50.840;4.386;2023-05-07T03:15:43;17.80;96.80
39675;DHT22;27790;50.840;4.386;2023-05-07T03:18:08;17.80;96.80
39675;DHT22;27790;50.840;4.386;2023-05-07T03:20:34;17.80;96.90
39675;DHT22;27790;50.840;4.386;2023-05-07T03:23:01;17.80;97.10
39675;DHT22;27790;50.840;4.386;2023-05-07T03:25:27;17.80;96.60
39675;DHT22;27790;50.840;4.386;2023-05-07T03:27:53;17.70;96.70
39675;DHT22;27790;50.840;4.386;2023-05-07T03:30:18;17.70;97.00
39675;DHT22;27790;50.840;4.386;2023-05-07T03:32:44;17.80;97.10
39675;DHT22;27790;50.840;4.386;2023-05-07T03:35:09;17.90;97.10
39675;DHT22;27790;50.840;4.386;2023-05-07T03:37:35;17.90;97.00
39675;DHT22;27790;50.840;4.386;2023-05-07T03:40:01;17.90;97.00
39675;DHT22;27790;50.840;4.386;2023-05-07T03:42:28;17.90;97.00
39675;DHT22;27790;50.840;4.386;2023-05-07T03:44:54;18.00;96.90
39675;DHT22;27790;50.840;4.386;2023-05-07T03:47:20;18.00;96.80
39675;DHT22;27790;50.840;4.386;2023-05-07T03:49:45;18.00;96.70
39675;DHT22;27790;50.840;4.386;2023-05-07T03:52:11;18.00;96.70
39675;DHT22;27790;50.840;4.386;2023-05-07T03:54:36;18.00;96.80
39675;DHT22;27790;50.840;4.386;2023-05-07T03:57:02;18.00;96.80
39675;DHT22;27790;50.840;4.386;2023-05-07T03:59:28;18.10;96.70
39675;DHT22;27790;50.840;4.386;2023-05-07T04:01:53;18.10;96.80
39675;DHT22;27790;50.840;4.386;2023-05-07T04:04:19;18.10;96.70
39675;DHT22;27790;50.840;4.386;2023-05-07T04:06:45;18.10;96.80
39675;DHT22;27790;50.840;4.386;2023-05-07T04:09:11;18.10;96.70
39675;DHT22;27790;50.840;4.386;2023-05-07T04:11:36;18.10;96.90
39675;DHT22;27790;50.840;4.386;2023-05-07T04:14:02;18.10;96.80
39675;DHT22;27790;50.840;4.386;2023-05-07T04:16:27;18.10;96.90
39675;DHT22;27790;50.840;4.386;2023-05-07T04:18:53;18.20;96.90
39675;DHT22;27790;50.840;4.386;2023-05-07T04:21:19;18.20;96.80
39675;DHT22;27790;50.840;4.386;2023-05-07T04:23:46;18.20;96.60
39675;DHT22;27790;50.840;4.386;2023-05-07T04:26:12;18.20;96.80
39675;DHT22;27790;50.840;4.386;2023-05-07T04:28:38;18.20;96.80
39675;DHT22;27790;50.840;4.386;2023-05-07T04:31:04;18.20;96.70
39675;DHT22;27790;50.840;4.386;2023-05-07T04:33:31;18.30;96.60
39675;DHT22;27790;50.840;4.386;2023-05-07T04:35:57;18.30;96.50
39675;DHT22;27790;50.840;4.386;2023-05-07T04:38:22;18.30;96.50
39675;DHT22;27790;50.840;4.386;2023-05-07T04:40:49;18.30;96.50
39675;DHT22;27790;50.840;4.386;2023-05-07T04:43:15;18.40;96.20
39675;DHT22;27790;50.840;4.386;2023-05-07T04:45:41;18.40;96.20
39675;DHT22;27790;50.840;4.386;2023-05-07T04:48:08;18.40;96.30
39675;DHT22;27790;50.840;4.386;2023-05-07T04:50:34;18.40;96.40
39675;DHT22;27790;50.840;4.386;2023-05-07T04:52:59;18.40;96.30
39675;DHT22;27790;50.840;4.386;2023-05-07T04:55:25;18.50;96.40
39675;DHT22;27790;50.840;4.386;2023-05-07T04:57:52;18.60;96.30
39675;DHT22;27790;50.840;4.386;2023-05-07T05:00:18;18.70;96.20
39675;DHT22;27790;50.840;4.386;2023-05-07T05:02:45;18.70;96.10
39675;DHT22;27790;50.840;4.386;2023-05-07T05:05:11;18.80;95.60
39675;DHT22;27790;50.840;4.386;2023-05-07T05:07:37;18.80;95.40
39675;DHT22;27790;50.840;4.386;2023-05-07T05:10:04;18.80;95.50
39675;DHT22;27790;50.840;4.386;2023-05-07T05:12:30;18.80;95.70
39675;DHT22;27790;50.840;4.386;2023-05-07T05:14:56;18.80;95.30
39675;DHT22;27790;50.840;4.386;2023-05-07T05:17:21;18.90;95.20
39675;DHT22;27790;50.840;4.386;2023-05-07T05:19:47;19.00;95.20
39675;DHT22;27790;50.840;4.386;2023-05-07T05:22:13;19.00;95.50
39675;DHT22;27790;50.840;4.386;2023-05-07T05:24:38;19.00;95.40
39675;DHT22;27790;50.840;4.386;2023-05-07T05:27:04;19.00;95.00
39675;DHT22;27790;50.840;4.386;2023-05-07T05:29:30;19.10;94.90
39675;DHT22;27790;50.840;4.386;2023-05-07T05:31:57;19.20;94.80
39675;DHT22;27790;50.840;4.386;2023-05-07T05:34:22;19.30;94.70
39675;DHT22;27790;50.840;4.386;2023-05-07T05:36:48;19.30;94.70
39675;DHT22;27790;50.840;4.386;2023-05-07T05:39:14;19.30;94.80
39675;DHT22;27790;50.840;4.386;2023-05-07T05:41:39;19.20;94.40
39675;DHT22;27790;50.840;4.386;2023-05-07T05:44:05;19.20;94.90
39675;DHT22;27790;50.840;4.386;2023-05-07T05:46:31;19.20;95.40
39675;DHT22;27790;50.840;4.386;2023-05-07T05:48:56;19.20;95.30
39675;DHT22;27790;50.840;4.386;2023-05-07T05:51:22;19.20;95.30
39675;DHT22;27790;50.840;4.386;2023-05-07T05:53:48;19.30;95.50
39675;DHT22;27790;50.840;4.386;2023-05-07T05:56:15;19.30;95.30
39675;DHT22;27790;50.840;4.386;2023-05-07T05:58:41;19.30;95.30
39675;DHT22;27790;50.840;4.386;2023-05-07T06:01:06;19.30;95.10
39675;DHT22;27790;50.840;4.386;2023-05-07T06:03:32;19.30;95.30
39675;DHT22;27790;50.840;4.386;2023-05-07T06:05:58;19.30;95.00
39675;DHT22;27790;50.840;4.386;2023-05-07T06:08:23;19.10;94.60
39675;DHT22;27790;50.840;4.386;2023-05-07T06:10:49;19.10;95.00
39675;DHT22;27790;50.840;4.386;2023-05-07T06:13:15;19.00;95.30
39675;DHT22;27790;50.840;4.386;2023-05-07T06:15:40;18.90;95.10
39675;DHT22;27790;50.840;4.386;2023-05-07T06:18:06;18.90;95.30
39675;DHT22;27790;50.840;4.386;2023-05-07T06:20:32;18.90;95.60
39675;DHT22;27790;50.840;4.386;2023-05-07T06:22:57;18.80;95.70
39675;DHT22;27790;50.840;4.386;2023-05-07T06:25:23;18.80;96.00
39675;DHT22;27790;50.840;4.386;2023-05-07T06:27:48;18.80;95.80
39675;DHT22;27790;50.840;4.386;2023-05-07T06:30:14;18.70;96.40
39675;DHT22;27790;50.840;4.386;2023-05-07T06:32:40;18.70;96.60
39675;DHT22;27790;50.840;4.386;2023-05-07T06:35:06;18.80;96.80
39675;DHT22;27790;50.840;4.386;2023-05-07T06:37:32;18.80;96.70
39675;DHT22;27790;50.840;4.386;2023-05-07T06:39:58;18.80;96.80
39675;DHT22;27790;50.840;4.386;2023-05-07T06:42:23;18.80;96.70
39675;DHT22;27790;50.840;4.386;2023-05-07T06:44:49;18.80;96.90
39675;DHT22;27790;50.840;4.386;2023-05-07T06:47:14;18.70;97.10
39675;DHT22;27790;50.840;4.386;2023-05-07T06:49:40;18.60;97.30
39675;DHT22;27790;50.840;4.386;2023-05-07T06:52:05;18.60;97.60
39675;DHT22;27790;50.840;4.386;2023-05-07T06:54:31;18.60;97.80
39675;DHT22;27790;50.840;4.386;2023-05-07T06:56:57;18.60;98.10
39675;DHT22;27790;50.840;4.386;2023-05-07T06:59:23;18.70;98.20
39675;DHT22;27790;50.840;4.386;2023-05-07T07:01:49;18.70;98.00
39675;DHT22;27790;50.840;4.386;2023-05-07T07:04:14;18.70;98.20
39675;DHT22;27790;50.840;4.386;2023-05-07T07:06:40;18.70;98.40
39675;DHT22;27790;50.840;4.386;2023-05-07T07:09:06;18.70;98.70
39675;DHT22;27790;50.840;4.386;2023-05-07T07:11:31;18.60;98.70
39675;DHT22;27790;50.840;4.386;2023-05-07T07:13:57;18.60;98.60
39675;DHT22;27790;50.840;4.386;2023-05-07T07:16:24;18.60;98.60
39675;DHT22;27790;50.840;4.386;2023-05-07T07:18:49;18.60;98.80
39675;DHT22;27790;50.840;4.386;2023-05-07T07:21:15;18.60;99.20
39675;DHT22;27790;50.840;4.386;2023-05-07T07:23:41;18.60;99.40
39675;DHT22;27790;50.840;4.386;2023-05-07T07:26:07;18.70;99.50
39675;DHT22;27790;50.840;4.386;2023-05-07T07:28:32;18.70;99.50
39675;DHT22;27790;50.840;4.386;2023-05-07T07:30:58;18.70;99.40
39675;DHT22;27790;50.840;4.386;2023-05-07T07:33:24;18.60;99.70
39675;DHT22;27790;50.840;4.386;2023-05-07T07:35:49;18.60;99.90
39675;DHT22;27790;50.840;4.386;2023-05-07T07:38:15;18.70;99.90
39675;DHT22;27790;50.840;4.386;2023-05-07T07:40:41;18.70;99.90
39675;DHT22;27790;50.840;4.386;2023-05-07T07:43:06;18.70;99.90
39675;DHT22;27790;50.840;4.386;2023-05-07T07:45:32;18.70;99.90
39675;DHT22;27790;50.840;4.386;2023-05-07T07:47:57;18.70;99.90
39675;DHT22;27790;50.840;4.386;2023-05-07T07:50:23;18.80;99.90
39675;DHT22;27790;50.840;4.386;2023-05-07T07:52:48;18.90;99.90
39675;DHT22;27790;50.840;4.386;2023-05-07T07:55:14;18.90;99.90
39675;DHT22;27790;50.840;4.386;2023-05-07T07:57:43;19.00;99.90
39675;DHT22;27790;50.840;4.386;2023-05-07T08:00:09;19.00;99.90
39675;DHT22;27790;50.840;4.386;2023-05-07T08:02:35;18.90;99.90
39675;DHT22;27790;50.840;4.386;2023-05-07T08:05:00;18.90;99.80
39675;DHT22;27790;50.840;4.386;2023-05-07T08:07:29;18.90;99.90
39675;DHT22;27790;50.840;4.386;2023-05-07T08:09:55;18.90;99.90
39675;DHT22;27790;50.840;4.386;2023-05-07T08:12:20;18.90;99.90
39675;DHT22;27790;50.840;4.386;2023-05-07T08:14:46;18.90;99.90
39675;DHT22;27790;50.840;4.386;2023-05-07T08:17:12;19.00;99.90
39675;DHT22;27790;50.840;4.386;2023-05-07T08:19:38;19.00;99.90
39675;DHT22;27790;50.840;4.386;2023-05-07T08:22:03;19.00;99.90
39675;DHT22;27790;50.840;4.386;2023-05-07T08:24:30;19.00;99.90
39675;DHT22;27790;50.840;4.386;2023-05-07T08:26:56;18.90;99.90
39675;DHT22;27790;50.840;4.386;2023-05-07T08:29:22;18.80;99.90
39675;DHT22;27790;50.840;4.386;2023-05-07T08:31:47;18.90;99.90
39675;DHT22;27790;50.840;4.386;2023-05-07T08:34:13;19.00;99.90
39675;DHT22;27790;50.840;4.386;2023-05-07T08:36:39;19.00;99.90
39675;DHT22;27790;50.840;4.386;2023-05-07T08:39:07;19.10;99.90
39675;DHT22;27790;50.840;4.386;2023-05-07T08:41:32;19.10;99.90
39675;DHT22;27790;50.840;4.386;2023-05-07T08:43:59;19.10;99.90
39675;DHT22;27790;50.840;4.386;2023-05-07T08:46:31;19.20;99.90
39675;DHT22;27790;50.840;4.386;2023-05-07T08:48:59;19.20;99.90
39675;DHT22;27790;50.840;4.386;2023-05-07T08:51:25;19.20;99.90
39675;DHT22;27790;50.840;4.386;2023-05-07T08:53:51;19.20;99.90
39675;DHT22;27790;50.840;4.386;2023-05-07T08:56:17;19.30;99.90
39675;DHT22;27790;50.840;4.386;2023-05-07T08:58:44;19.30;99.90
39675;DHT22;27790;50.840;4.386;2023-05-07T09:01:13;19.30;99.90
39675;DHT22;27790;50.840;4.386;2023-05-07T09:03:39;19.30;99.90
39675;DHT22;27790;50.840;4.386;2023-05-07T09:06:06;19.30;99.90
39675;DHT22;27790;50.840;4.386;2023-05-07T09:08:33;19.20;99.90
39675;DHT22;27790;50.840;4.386;2023-05-07T09:10:59;19.20;99.90
39675;DHT22;27790;50.840;4.386;2023-05-07T09:13:25;19.20;99.90
39675;DHT22;27790;50.840;4.386;2023-05-07T09:15:52;19.30;99.90
39675;DHT22;27790;50.840;4.386;2023-05-07T09:18:18;19.40;99.90
39675;DHT22;27790;50.840;4.386;2023-05-07T09:20:43;19.50;99.90
39675;DHT22;27790;50.840;4.386;2023-05-07T09:23:09;19.50;99.90
39675;DHT22;27790;50.840;4.386;2023-05-07T09:25:36;19.60;99.90
39675;DHT22;27790;50.840;4.386;2023-05-07T09:28:03;19.60;99.90
39675;DHT22;27790;50.840;4.386;2023-05-07T09:30:32;19.60;99.90
39675;DHT22;27790;50.840;4.386;2023-05-07T09:32:59;19.70;99.90
39675;DHT22;27790;50.840;4.386;2023-05-07T09:35:25;19.70;99.90
39675;DHT22;27790;50.840;4.386;2023-05-07T09:37:56;19.80;99.90
39675;DHT22;27790;50.840;4.386;2023-05-07T09:40:24;19.80;99.90
39675;DHT22;27790;50.840;4.386;2023-05-07T09:42:50;19.90;99.90
39675;DHT22;27790;50.840;4.386;2023-05-07T09:45:24;20.00;99.90
39675;DHT22;27790;50.840;4.386;2023-05-07T09:47:54;20.10;99.90
39675;DHT22;27790;50.840;4.386;2023-05-07T09:53:10;20.10;99.90
39675;DHT22;27790;50.840;4.386;2023-05-07T09:55:36;20.10;99.90
39675;DHT22;27790;50.840;4.386;2023-05-07T09:58:04;20.20;99.90
39675;DHT22;27790;50.840;4.386;2023-05-07T10:00:30;20.20;99.90
39675;DHT22;27790;50.840;4.386;2023-05-07T10:02:57;20.40;99.90
39675;DHT22;27790;50.840;4.386;2023-05-07T10:05:24;20.40;99.90
39675;DHT22;27790;50.840;4.386;2023-05-07T10:07:50;20.50;99.90
39675;DHT22;27790;50.840;4.386;2023-05-07T10:10:17;20.50;99.90
39675;DHT22;27790;50.840;4.386;2023-05-07T10:12:43;20.40;99.90
39675;DHT22;27790;50.840;4.386;2023-05-07T10:15:12;20.30;99.90
39675;DHT22;27790;50.840;4.386;2023-05-07T10:17:39;20.20;99.90
39675;DHT22;27790;50.840;4.386;2023-05-07T10:20:05;20.20;99.90
39675;DHT22;27790;50.840;4.386;2023-05-07T10:22:37;20.20;99.90
39675;DHT22;27790;50.840;4.386;2023-05-07T10:25:16;20.20;99.90
39675;DHT22;27790;50.840;4.386;2023-05-07T10:27:44;20.10;99.90
39675;DHT22;27790;50.840;4.386;2023-05-07T10:33:01;20.20;99.90
39675;DHT22;27790;50.840;4.386;2023-05-07T10:35:36;20.30;99.90
39675;DHT22;27790;50.840;4.386;2023-05-07T10:38:03;20.30;99.90
39675;DHT22;27790;50.840;4.386;2023-05-07T10:40:30;20.30;99.90
39675;DHT22;27790;50.840;4.386;2023-05-07T10:42:58;20.30;99.90
39675;DHT22;27790;50.840;4.386;2023-05-07T10:45:28;20.30;99.90
39675;DHT22;27790;50.840;4.386;2023-05-07T10:48:08;20.30;99.90
39675;DHT22;27790;50.840;4.386;2023-05-07T10:50:34;20.30;99.90
39675;DHT22;27790;50.840;4.386;2023-05-07T10:58:39;20.60;99.90
39675;DHT22;27790;50.840;4.386;2023-05-07T11:01:05;20.60;99.90
39675;DHT22;27790;50.840;4.386;2023-05-07T11:03:30;20.70;99.90
39675;DHT22;27790;50.840;4.386;2023-05-07T11:06:14;20.80;99.90
39675;DHT22;27790;50.840;4.386;2023-05-07T11:11:20;20.80;99.90
39675;DHT22;27790;50.840;4.386;2023-05-07T11:14:05;20.90;99.90
39675;DHT22;27790;50.840;4.386;2023-05-07T11:16:30;20.90;99.90
39675;DHT22;27790;50.840;4.386;2023-05-07T11:19:02;21.00;99.90
39675;DHT22;27790;50.840;4.386;2023-05-07T11:21:39;21.00;99.50
39675;DHT22;27790;50.840;4.386;2023-05-07T11:24:09;21.10;99.40
39675;DHT22;27790;50.840;4.386;2023-05-07T11:26:47;21.10;99.10
39675;DHT22;27790;50.840;4.386;2023-05-07T11:29:18;21.20;99.10
39675;DHT22;27790;50.840;4.386;2023-05-07T11:31:48;21.10;99.40
39675;DHT22;27790;50.840;4.386;2023-05-07T11:34:15;21.10;99.60
39675;DHT22;27790;50.840;4.386;2023-05-07T11:36:46;21.20;99.70
39675;DHT22;27790;50.840;4.386;2023-05-07T11:39:27;21.20;99.20
39675;DHT22;27790;50.840;4.386;2023-05-07T11:41:53;21.20;99.60
39675;DHT22;27790;50.840;4.386;2023-05-07T11:44:19;21.10;99.70
39675;DHT22;27790;50.840;4.386;2023-05-07T11:46:44;21.20;99.70
39675;DHT22;27790;50.840;4.386;2023-05-07T11:49:10;21.30;99.60
39675;DHT22;27790;50.840;4.386;2023-05-07T11:51:36;21.30;99.60
39675;DHT22;27790;50.840;4.386;2023-05-07T11:54:04;21.30;99.50
39675;DHT22;27790;50.840;4.386;2023-05-07T11:56:34;21.40;99.60
39675;DHT22;27790;50.840;4.386;2023-05-07T11:59:00;21.50;99.20
39675;DHT22;27790;50.840;4.386;2023-05-07T12:01:26;21.60;99.50
39675;DHT22;27790;50.840;4.386;2023-05-07T12:03:51;21.80;99.40
39675;DHT22;27790;50.840;4.386;2023-05-07T12:06:17;21.90;99.30
39675;DHT22;27790;50.840;4.386;2023-05-07T12:08:44;21.90;99.30
39675;DHT22;27790;50.840;4.386;2023-05-07T12:11:14;22.00;99.10
39675;DHT22;27790;50.840;4.386;2023-05-07T12:13:41;22.20;98.70
39675;DHT22;27790;50.840;4.386;2023-05-07T12:16:07;22.20;98.20
39675;DHT22;27790;50.840;4.386;2023-05-07T12:18:35;22.30;98.00
39675;DHT22;27790;50.840;4.386;2023-05-07T12:21:01;22.20;98.10
39675;DHT22;27790;50.840;4.386;2023-05-07T12:23:27;22.10;98.50
39675;DHT22;27790;50.840;4.386;2023-05-07T12:25:53;22.10;98.90
39675;DHT22;27790;50.840;4.386;2023-05-07T12:28:19;22.00;99.00
39675;DHT22;27790;50.840;4.386;2023-05-07T12:30:46;21.80;98.90
39675;DHT22;27790;50.840;4.386;2023-05-07T12:33:16;21.80;98.70
39675;DHT22;27790;50.840;4.386;2023-05-07T12:35:42;21.80;98.70
39675;DHT22;27790;50.840;4.386;2023-05-07T12:38:13;22.00;98.50
39675;DHT22;27790;50.840;4.386;2023-05-07T12:43:05;22.00;97.90
39675;DHT22;27790;50.840;4.386;2023-05-07T12:45:31;21.90;98.10
39675;DHT22;27790;50.840;4.386;2023-05-07T12:48:01;21.90;98.30
39675;DHT22;27790;50.840;4.386;2023-05-07T12:50:31;21.80;98.80
39675;DHT22;27790;50.840;4.386;2023-05-07T12:52:58;21.80;98.20
39675;DHT22;27790;50.840;4.386;2023-05-07T12:55:24;22.00;97.80
39675;DHT22;27790;50.840;4.386;2023-05-07T12:57:50;22.00;98.00
39675;DHT22;27790;50.840;4.386;2023-05-07T13:00:17;22.10;98.20
39675;DHT22;27790;50.840;4.386;2023-05-07T13:02:43;22.10;98.00
39675;DHT22;27790;50.840;4.386;2023-05-07T13:05:12;22.10;98.40
39675;DHT22;27790;50.840;4.386;2023-05-07T13:07:39;22.00;97.80
39675;DHT22;27790;50.840;4.386;2023-05-07T13:10:06;22.00;97.90
39675;DHT22;27790;50.840;4.386;2023-05-07T13:12:32;22.00;98.00
39675;DHT22;27790;50.840;4.386;2023-05-07T13:14:58;22.00;98.00
39675;DHT22;27790;50.840;4.386;2023-05-07T13:17:24;22.00;98.40
39675;DHT22;27790;50.840;4.386;2023-05-07T13:19:50;22.00;97.50
39675;DHT22;27790;50.840;4.386;2023-05-07T13:22:15;22.00;97.60
39675;DHT22;27790;50.840;4.386;2023-05-07T13:24:41;22.00;97.50
39675;DHT22;27790;50.840;4.386;2023-05-07T13:27:08;21.90;97.50
39675;DHT22;27790;50.840;4.386;2023-05-07T13:29:33;21.90;97.90
39675;DHT22;27790;50.840;4.386;2023-05-07T13:31:59;21.90;97.40
39675;DHT22;27790;50.840;4.386;2023-05-07T13:34:25;21.90;98.40
39675;DHT22;27790;50.840;4.386;2023-05-07T13:36:51;21.90;98.20
39675;DHT22;27790;50.840;4.386;2023-05-07T13:39:16;21.80;98.10
39675;DHT22;27790;50.840;4.386;2023-05-07T13:41:42;21.70;98.40
39675;DHT22;27790;50.840;4.386;2023-05-07T13:44:07;21.60;98.10
39675;DHT22;27790;50.840;4.386;2023-05-07T13:46:33;21.60;98.80
39675;DHT22;27790;50.840;4.386;2023-05-07T13:48:59;21.60;98.40
39675;DHT22;27790;50.840;4.386;2023-05-07T13:51:25;21.60;98.00
39675;DHT22;27790;50.840;4.386;2023-05-07T13:53:51;21.60;97.90
39675;DHT22;27790;50.840;4.386;2023-05-07T13:56:17;21.50;98.60
39675;DHT22;27790;50.840;4.386;2023-05-07T13:58:43;21.40;99.00
39675;DHT22;27790;50.840;4.386;2023-05-07T14:01:09;21.40;99.00
39675;DHT22;27790;50.840;4.386;2023-05-07T14:03:34;21.50;98.70
39675;DHT22;27790;50.840;4.386;2023-05-07T14:06:03;21.60;98.70
39675;DHT22;27790;50.840;4.386;2023-05-07T14:08:28;21.50;99.00
39675;DHT22;27790;50.840;4.386;2023-05-07T14:10:54;21.60;99.00
39675;DHT22;27790;50.840;4.386;2023-05-07T14:13:20;21.60;98.60
39675;DHT22;27790;50.840;4.386;2023-05-07T14:15:45;21.50;98.90
39675;DHT22;27790;50.840;4.386;2023-05-07T14:18:15;21.50;98.90
39675;DHT22;27790;50.840;4.386;2023-05-07T14:20:41;21.50;98.70
39675;DHT22;27790;50.840;4.386;2023-05-07T14:23:09;21.50;98.50
39675;DHT22;27790;50.840;4.386;2023-05-07T14:25:35;21.60;98.70
39675;DHT22;27790;50.840;4.386;2023-05-07T14:28:00;21.60;98.30
39675;DHT22;27790;50.840;4.386;2023-05-07T14:30:26;21.70;98.50
39675;DHT22;27790;50.840;4.386;2023-05-07T14:32:52;21.70;98.60
39675;DHT22;27790;50.840;4.386;2023-05-07T14:35:17;21.60;98.30
39675;DHT22;27790;50.840;4.386;2023-05-07T14:37:43;21.60;98.10
39675;DHT22;27790;50.840;4.386;2023-05-07T14:40:09;21.60;97.80
39675;DHT22;27790;50.840;4.386;2023-05-07T14:42:35;21.70;98.10
39675;DHT22;27790;50.840;4.386;2023-05-07T14:45:01;21.70;97.80
39675;DHT22;27790;50.840;4.386;2023-05-07T14:47:27;21.70;97.80
39675;DHT22;27790;50.840;4.386;2023-05-07T14:49:54;21.70;98.30
39675;DHT22;27790;50.840;4.386;2023-05-07T14:52:20;21.70;98.50
39675;DHT22;27790;50.840;4.386;2023-05-07T14:54:45;21.60;98.20
39675;DHT22;27790;50.840;4.386;2023-05-07T14:57:13;21.60;98.30
39675;DHT22;27790;50.840;4.386;2023-05-07T14:59:40;21.70;98.40
39675;DHT22;27790;50.840;4.386;2023-05-07T15:02:06;21.70;98.50
39675;DHT22;27790;50.840;4.386;2023-05-07T15:04:33;21.70;98.60
39675;DHT22;27790;50.840;4.386;2023-05-07T15:06:59;21.60;98.00
39675;DHT22;27790;50.840;4.386;2023-05-07T15:09:25;21.50;98.20
39675;DHT22;27790;50.840;4.386;2023-05-07T15:11:51;21.30;98.70
39675;DHT22;27790;50.840;4.386;2023-05-07T15:14:17;21.30;99.00
39675;DHT22;27790;50.840;4.386;2023-05-07T15:16:42;21.30;98.70
39675;DHT22;27790;50.840;4.386;2023-05-07T15:19:08;21.30;98.60
39675;DHT22;27790;50.840;4.386;2023-05-07T15:21:33;21.30;98.80
39675;DHT22;27790;50.840;4.386;2023-05-07T15:24:01;21.30;98.80
39675;DHT22;27790;50.840;4.386;2023-05-07T15:26:27;21.30;98.60
39675;DHT22;27790;50.840;4.386;2023-05-07T15:28:52;21.30;99.00
39675;DHT22;27790;50.840;4.386;2023-05-07T15:31:18;21.20;99.00
39675;DHT22;27790;50.840;4.386;2023-05-07T15:33:43;21.20;99.30
39675;DHT22;27790;50.840;4.386;2023-05-07T15:36:10;21.10;99.30
39675;DHT22;27790;50.840;4.386;2023-05-07T15:38:36;21.00;99.30
39675;DHT22;27790;50.840;4.386;2023-05-07T15:41:02;21.00;99.50